createdAt,value
2022-10-11T00:02:58.180Z,8.52
2022-10-11T00:06:04.085Z,8.25
2022-10-11T00:09:07.629Z,7.67
2022-10-11T00:12:11.448Z,8.13
2022-10-11T00:15:17.326Z,8.02
2022-10-11T00:18:21.091Z,7.80
2022-10-11T00:21:25.322Z,7.47
2022-10-11T00:24:28.874Z,7.33
2022-10-11T00:27:32.438Z,7.60
2022-10-11T00:30:35.925Z,7.57
2022-10-11T00:33:39.588Z,8.02
2022-10-11T00:36:43.065Z,8.30
2022-10-11T00:39:46.138Z,7.83
2022-10-11T00:42:49.341Z,8.25
2022-10-11T00:45:58.150Z,8.98
2022-10-11T00:49:19.750Z,9.10
2022-10-11T00:52:38.075Z,9.07
2022-10-11T00:55:51.874Z,10.40
2022-10-11T00:58:56.399Z,8.27
2022-10-11T01:01:59.835Z,9.63
2022-10-11T01:05:27.587Z,9.80
2022-10-11T01:08:27.652Z,9.63
2022-10-11T01:11:31.542Z,9.85
2022-10-11T01:14:47.902Z,9.70
2022-10-11T01:18:03.889Z,10.17
2022-10-11T01:21:26.740Z,10.05
2022-10-11T01:25:03.808Z,10.02
2022-10-11T01:28:27.212Z,10.88
2022-10-11T01:32:00.114Z,10.43
2022-10-11T01:35:42.702Z,10.00
2022-10-11T01:38:53.035Z,10.27
2022-10-11T01:42:00.772Z,10.80
2022-10-11T01:45:05.786Z,10.20
2022-10-11T01:48:13.002Z,9.95
2022-10-11T01:51:16.330Z,10.20
2022-10-11T01:55:07.684Z,10.90
2022-10-11T01:58:19.833Z,10.57
2022-10-11T02:01:38.009Z,10.40
2022-10-11T02:04:53.618Z,11.18
2022-10-11T02:08:18.085Z,10.10
2022-10-11T02:11:30.671Z,10.77
2022-10-11T02:14:41.524Z,12.48
2022-10-11T02:17:51.776Z,12.40
2022-10-11T02:21:00.850Z,13.15
2022-10-11T02:24:11.586Z,11.30
2022-10-11T02:27:17.441Z,11.45
2022-10-11T02:30:20.908Z,11.52
2022-10-11T02:33:31.524Z,11.30
2022-10-11T02:36:48.259Z,11.30
2022-10-11T02:40:04.200Z,10.32
2022-10-11T02:43:29.167Z,11.88
2022-10-11T02:46:33.765Z,11.43
2022-10-11T02:49:37.506Z,11.87
2022-10-11T02:52:40.856Z,11.55
2022-10-11T02:55:44.332Z,12.75
2022-10-11T02:58:47.796Z,12.80
2022-10-11T03:01:51.327Z,12.77
2022-10-11T03:04:54.394Z,12.75
2022-10-11T03:07:58.602Z,12.45
2022-10-11T03:11:01.379Z,12.65
2022-10-11T03:14:05.672Z,11.83
2022-10-11T03:17:34.633Z,12.50
2022-10-11T03:20:32.691Z,12.05
2022-10-11T03:23:35.789Z,11.95
2022-10-11T03:26:39.144Z,11.37
2022-10-11T03:29:42.326Z,11.23
2022-10-11T03:32:46.446Z,11.95
2022-10-11T03:35:50.337Z,12.13
2022-10-11T03:38:55.022Z,11.03
2022-10-11T03:41:58.110Z,11.50
2022-10-11T03:45:05.548Z,10.05
2022-10-11T03:48:09.526Z,9.35
2022-10-11T03:51:13.415Z,9.82
2022-10-11T03:54:16.455Z,10.73
2022-10-11T03:57:20.848Z,9.07
2022-10-11T04:00:24.195Z,9.35
2022-10-11T04:03:28.001Z,10.00
2022-10-11T04:06:31.310Z,8.38
2022-10-11T04:09:35.215Z,7.90
2022-10-11T04:12:39.283Z,8.65
2022-10-11T04:15:42.673Z,7.57
2022-10-11T04:18:45.800Z,8.17
2022-10-11T04:21:49.383Z,7.93
2022-10-11T04:24:52.416Z,9.13
2022-10-11T04:27:55.843Z,7.60
2022-10-11T04:30:59.833Z,6.50
2022-10-11T04:34:04.671Z,7.50
2022-10-11T04:37:07.841Z,7.20
2022-10-11T04:40:12.821Z,7.72
2022-10-11T04:43:17.725Z,6.65
2022-10-11T04:46:21.725Z,8.93
2022-10-11T04:49:25.034Z,8.20
2022-10-11T04:52:28.605Z,8.52
2022-10-11T04:55:31.896Z,8.48
2022-10-11T04:58:35.933Z,8.63
2022-10-11T05:01:39.401Z,7.77
2022-10-11T05:04:43.042Z,7.82
2022-10-11T05:07:46.322Z,7.72
2022-10-11T05:11:01.686Z,8.32
2022-10-11T05:14:04.715Z,8.35
2022-10-11T05:17:08.397Z,8.07
2022-10-11T05:20:12.892Z,7.82
2022-10-11T05:23:16.296Z,7.22
2022-10-11T05:26:20.663Z,7.22
2022-10-11T05:29:24.056Z,7.35
2022-10-11T05:32:28.098Z,8.67
2022-10-11T05:35:31.589Z,7.65
2022-10-11T05:38:35.577Z,7.32
2022-10-11T05:41:39.171Z,6.55
2022-10-11T05:44:51.984Z,8.15
2022-10-11T05:47:55.317Z,7.23
2022-10-11T05:51:00.415Z,7.80
2022-10-11T05:54:03.653Z,7.25
2022-10-11T05:57:06.949Z,6.95
2022-10-11T06:00:11.564Z,7.00
2022-10-11T06:03:16.996Z,7.13
2022-10-11T06:06:20.971Z,6.45
2022-10-11T06:09:24.479Z,7.28
2022-10-11T06:12:30.267Z,5.47
2022-10-11T06:15:34.275Z,5.50
2022-10-11T06:18:38.316Z,5.20
2022-10-11T06:21:41.467Z,5.15
2022-10-11T06:24:44.986Z,5.25
2022-10-11T06:27:48.032Z,5.03
2022-10-11T06:30:51.831Z,5.35
2022-10-11T06:33:55.116Z,4.80
2022-10-11T06:36:58.523Z,4.75
2022-10-11T06:40:02.445Z,5.07
2022-10-11T06:43:06.196Z,4.53
2022-10-11T06:46:09.468Z,5.22
2022-10-11T06:49:13.246Z,5.00
2022-10-11T06:52:16.719Z,5.22
2022-10-11T06:55:20.780Z,4.80
2022-10-11T06:58:24.388Z,5.57
2022-10-11T07:01:29.053Z,5.05
2022-10-11T07:04:34.071Z,5.17
2022-10-11T07:07:37.581Z,4.72
2022-10-11T07:10:41.023Z,4.30
2022-10-11T07:13:50.986Z,4.45
2022-10-11T07:16:58.793Z,3.67
2022-10-11T07:20:09.735Z,4.33
2022-10-11T07:23:12.892Z,4.57
2022-10-11T07:26:16.659Z,4.47
2022-10-11T07:29:20.414Z,4.10
2022-10-11T07:32:23.813Z,4.10
2022-10-11T07:35:26.843Z,4.10
2022-10-11T07:38:30.399Z,4.05
2022-10-11T07:41:33.912Z,4.57
2022-10-11T07:44:37.333Z,3.85
2022-10-11T07:47:40.438Z,4.60
2022-10-11T07:50:44.115Z,4.53
2022-10-11T07:53:50.140Z,4.10
2022-10-11T07:56:53.463Z,5.00
2022-10-11T07:59:56.804Z,4.07
2022-10-11T08:03:03.967Z,4.22
2022-10-11T08:06:09.949Z,3.90
2022-10-11T08:09:14.076Z,4.12
2022-10-11T08:12:18.124Z,4.20
2022-10-11T08:15:22.321Z,3.75
2022-10-11T08:18:27.041Z,3.75
2022-10-11T08:21:30.132Z,4.10
2022-10-11T08:24:38.320Z,4.10
2022-10-11T08:27:41.629Z,4.32
2022-10-11T08:30:53.991Z,3.97
2022-10-11T08:33:57.205Z,3.80
2022-10-11T08:37:00.876Z,3.80
2022-10-11T08:40:06.240Z,4.78
2022-10-11T08:43:29.589Z,4.55
2022-10-11T08:46:35.329Z,4.37
2022-10-11T08:49:40.824Z,4.53
2022-10-11T08:52:57.770Z,4.50
2022-10-11T08:56:03.352Z,4.65
2022-10-11T08:59:13.585Z,4.82
2022-10-11T09:02:26.333Z,4.70
2022-10-11T09:05:49.671Z,4.75
2022-10-11T09:09:11.632Z,4.30
2022-10-11T09:12:40.529Z,5.00
2022-10-11T09:16:19.763Z,4.70
2022-10-11T09:19:28.755Z,4.45
2022-10-11T09:22:46.157Z,5.20
2022-10-11T09:26:02.438Z,4.93
2022-10-11T09:29:29.750Z,4.85
2022-10-11T09:32:40.386Z,4.68
2022-10-11T09:35:47.912Z,4.85
2022-10-11T09:39:06.527Z,4.20
2022-10-11T09:42:12.030Z,4.60
2022-10-11T09:45:19.043Z,4.68
2022-10-11T09:48:30.769Z,4.75
2022-10-11T09:51:34.758Z,4.95
2022-10-11T09:54:49.631Z,4.90
2022-10-11T09:57:55.679Z,4.93
2022-10-11T10:01:08.519Z,4.93
2022-10-11T10:04:14.855Z,4.50
2022-10-11T10:07:18.024Z,4.60
2022-10-11T10:10:29.882Z,4.70
2022-10-11T10:13:46.731Z,5.10
2022-10-11T10:16:59.419Z,5.20
2022-10-11T10:20:05.752Z,4.22
2022-10-11T10:23:24.973Z,4.95
2022-10-11T10:26:28.089Z,4.35
2022-10-11T10:29:31.449Z,4.70
2022-10-11T10:32:47.551Z,5.50
2022-10-11T10:36:07.435Z,4.75
2022-10-11T10:39:47.910Z,4.50
2022-10-11T10:42:51.560Z,5.05
2022-10-11T10:46:13.163Z,5.20
2022-10-11T10:49:53.798Z,5.82
2022-10-11T10:53:14.576Z,4.85
2022-10-11T10:56:29.923Z,4.85
2022-10-11T10:59:46.548Z,5.03
2022-10-11T11:03:42.828Z,4.40
2022-10-11T11:06:59.684Z,5.28
2022-10-11T11:10:07.845Z,5.32
2022-10-11T11:13:23.551Z,5.22
2022-10-11T11:16:42.266Z,6.32
2022-10-11T11:20:00.889Z,5.43
2022-10-11T11:23:29.716Z,5.60
2022-10-11T11:26:48.051Z,5.50
2022-10-11T11:30:04.092Z,5.68
2022-10-11T11:33:37.116Z,5.57
2022-10-11T11:36:56.490Z,6.23
2022-10-11T11:40:15.702Z,6.10
2022-10-11T11:43:39.998Z,6.75
2022-10-11T11:46:50.647Z,6.12
2022-10-11T11:49:59.545Z,7.53
2022-10-11T11:53:08.136Z,6.77
2022-10-11T11:56:26.050Z,7.10
2022-10-11T11:59:59.589Z,6.70
2022-10-11T12:03:11.976Z,7.10
2022-10-11T12:06:16.047Z,7.40
2022-10-11T12:09:19.167Z,7.63
2022-10-11T12:12:29.358Z,7.70
2022-10-11T12:15:34.320Z,8.00
2022-10-11T12:18:56.606Z,7.90
2022-10-11T12:22:26.641Z,8.30
2022-10-11T12:25:38.387Z,7.80
2022-10-11T12:28:41.337Z,7.85
2022-10-11T12:32:11.557Z,8.13
2022-10-11T12:35:50.125Z,7.82
2022-10-11T12:39:21.383Z,8.07
2022-10-11T12:42:31.907Z,8.57
2022-10-11T12:45:35.461Z,8.00
2022-10-11T12:49:01.619Z,8.00
2022-10-11T12:52:19.436Z,7.93
2022-10-11T12:55:35.558Z,7.93
2022-10-11T12:58:46.476Z,8.70
2022-10-11T13:01:58.863Z,8.00
2022-10-11T13:05:15.640Z,8.30
2022-10-11T13:08:25.675Z,7.37
2022-10-11T13:11:33.857Z,8.10
2022-10-11T13:14:43.820Z,8.10
2022-10-11T13:17:48.919Z,8.13
2022-10-11T13:20:52.913Z,8.30
2022-10-11T13:24:00.076Z,8.05
2022-10-11T13:27:03.888Z,7.75
2022-10-11T13:30:17.005Z,8.37
2022-10-11T13:33:32.382Z,8.50
2022-10-11T13:36:36.108Z,8.35
2022-10-11T13:39:40.346Z,9.00
2022-10-11T13:42:45.033Z,8.95
2022-10-11T13:45:49.185Z,7.83
2022-10-11T13:49:05.348Z,8.30
2022-10-11T13:52:23.539Z,8.32
2022-10-11T13:55:30.613Z,8.50
2022-10-11T13:58:40.546Z,8.27
2022-10-11T14:01:47.664Z,8.83
2022-10-11T14:04:51.314Z,10.35
2022-10-11T14:07:56.084Z,9.18
2022-10-11T14:11:06.332Z,9.18
2022-10-11T14:14:35.730Z,8.30
2022-10-11T14:17:45.133Z,9.37
2022-10-11T14:20:48.570Z,9.55
2022-10-11T14:24:21.725Z,9.88
2022-10-11T14:27:27.992Z,9.40
2022-10-11T14:30:31.717Z,10.90
2022-10-11T14:33:35.332Z,9.80
2022-10-11T14:36:38.674Z,9.75
2022-10-11T14:39:42.581Z,9.43
2022-10-11T14:42:46.064Z,10.43
2022-10-11T14:45:49.113Z,9.85
2022-10-11T14:48:55.907Z,9.60
2022-10-11T14:51:59.891Z,10.80
2022-10-11T14:55:05.272Z,10.43
2022-10-11T14:58:10.436Z,13.15
2022-10-11T15:01:15.988Z,12.00
2022-10-11T15:04:23.762Z,11.30
2022-10-11T15:07:27.630Z,11.23
2022-10-11T15:10:39.378Z,11.12
2022-10-11T15:13:42.980Z,11.73
2022-10-11T15:16:46.435Z,11.02
2022-10-11T15:19:50.956Z,11.43
2022-10-11T15:22:54.758Z,12.60
2022-10-11T15:25:58.070Z,11.90
2022-10-11T15:29:01.557Z,12.45
2022-10-11T15:32:05.056Z,11.45
2022-10-11T15:35:08.426Z,11.30
2022-10-11T15:38:21.437Z,13.77
2022-10-11T15:41:24.466Z,14.40
2022-10-11T15:44:27.848Z,17.23
2022-10-11T15:47:30.890Z,15.43
2022-10-11T15:50:39.845Z,17.00
2022-10-11T15:53:42.965Z,15.48
2022-10-11T15:56:48.068Z,16.33
2022-10-11T15:59:51.049Z,16.33
2022-10-11T16:02:58.268Z,16.30
2022-10-11T16:06:05.377Z,16.73
2022-10-11T16:09:09.748Z,16.90
2022-10-11T16:12:13.052Z,16.62
2022-10-11T16:15:16.949Z,17.65
2022-10-11T16:18:22.290Z,19.12
2022-10-11T16:21:26.519Z,18.20
2022-10-11T16:24:29.886Z,19.73
2022-10-11T16:27:34.131Z,21.92
2022-10-11T16:30:45.199Z,22.30
2022-10-11T16:33:48.981Z,20.50
2022-10-11T16:36:52.390Z,19.73
2022-10-11T16:39:57.308Z,19.90
2022-10-11T16:43:07.501Z,18.75
2022-10-11T16:46:10.934Z,18.23
2022-10-11T16:49:23.512Z,19.83
2022-10-11T16:52:28.227Z,19.40
2022-10-11T16:55:31.610Z,20.65
2022-10-11T16:58:36.571Z,20.20
2022-10-11T17:01:41.036Z,19.23
2022-10-11T17:04:45.442Z,19.73
2022-10-11T17:07:48.642Z,19.67
2022-10-11T17:10:57.730Z,18.27
2022-10-11T17:14:01.870Z,19.95
2022-10-11T17:17:06.633Z,19.67
2022-10-11T17:20:10.261Z,20.25
2022-10-11T17:23:13.784Z,19.63
2022-10-11T17:26:26.471Z,19.35
2022-10-11T17:29:30.072Z,22.62
2022-10-11T17:32:33.372Z,23.20
2022-10-11T17:35:36.386Z,26.92
2022-10-11T17:38:40.248Z,25.50
2022-10-11T17:41:44.500Z,24.17
2022-10-11T17:44:53.950Z,25.23
2022-10-11T17:48:00.751Z,28.48
2022-10-11T17:51:15.095Z,28.73
2022-10-11T17:54:19.691Z,27.27
2022-10-11T17:57:26.584Z,25.25
2022-10-11T18:00:52.283Z,26.75
2022-10-11T18:04:00.830Z,25.75
2022-10-11T18:07:12.525Z,24.87
2022-10-11T18:10:30.904Z,24.53
2022-10-11T18:13:45.221Z,24.42
2022-10-11T18:17:14.392Z,24.30
2022-10-11T18:20:20.068Z,26.08
2022-10-11T18:23:27.366Z,25.02
2022-10-11T18:26:41.619Z,25.10
2022-10-11T18:30:22.307Z,25.52
2022-10-11T18:33:28.854Z,25.52
2022-10-11T18:36:47.632Z,28.20
2022-10-11T18:40:03.802Z,24.30
2022-10-11T18:43:22.286Z,24.40
2022-10-11T18:46:51.731Z,21.73
2022-10-11T18:50:11.198Z,21.77
2022-10-11T18:54:22.668Z,22.27
2022-10-11T18:57:07.771Z,21.37
2022-10-11T19:00:40.884Z,20.43
2022-10-11T19:04:10.409Z,20.60
2022-10-11T19:07:35.064Z,19.62
2022-10-11T19:10:41.063Z,19.40
2022-10-11T19:14:01.724Z,19.33
2022-10-11T19:17:23.031Z,18.90
2022-10-11T19:20:49.545Z,20.17
2022-10-11T19:23:58.834Z,20.33
2022-10-11T19:27:09.864Z,20.10
2022-10-11T19:30:28.516Z,20.95
2022-10-11T19:33:44.691Z,22.33
2022-10-11T19:37:01.191Z,22.15
2022-10-11T19:40:10.867Z,22.08
2022-10-11T19:43:17.594Z,23.77
2022-10-11T19:46:53.394Z,24.52
2022-10-11T19:49:52.442Z,23.53
2022-10-11T19:53:01.366Z,24.20
2022-10-11T19:56:27.522Z,22.90
2022-10-11T19:59:44.030Z,23.98
2022-10-11T20:02:58.889Z,22.85
2022-10-11T20:06:14.597Z,22.40
2022-10-11T20:09:40.021Z,22.85
2022-10-11T20:12:53.407Z,22.70
2022-10-11T20:16:05.719Z,22.25
2022-10-11T20:19:31.063Z,24.20
2022-10-11T20:22:38.297Z,22.23
2022-10-11T20:25:59.890Z,21.45
2022-10-11T20:29:06.007Z,21.37
2022-10-11T20:32:13.949Z,22.17
2022-10-11T20:35:26.214Z,19.65
2022-10-11T20:38:52.587Z,20.17
2022-10-11T20:42:00.059Z,20.85
2022-10-11T20:45:07.632Z,21.80
2022-10-11T20:48:13.516Z,23.25
2022-10-11T20:51:25.447Z,22.40
2022-10-11T20:54:31.764Z,21.83
2022-10-11T21:01:19.284Z,21.48
2022-10-11T21:04:29.250Z,22.40
2022-10-11T21:07:37.062Z,23.25
2022-10-11T21:11:02.629Z,23.07
2022-10-11T21:14:12.722Z,22.67
2022-10-11T21:17:17.437Z,21.67
2022-10-11T21:20:20.618Z,22.52
2022-10-11T21:23:24.250Z,23.92
2022-10-11T21:26:28.560Z,21.33
2022-10-11T21:29:31.945Z,21.42
2022-10-11T21:32:35.280Z,22.80
2022-10-11T21:35:40.302Z,21.85
2022-10-11T21:38:44.033Z,22.75
2022-10-11T21:41:47.384Z,22.80
2022-10-11T21:44:50.722Z,22.92
2022-10-11T21:47:54.269Z,23.70
2022-10-11T21:50:57.239Z,22.67
2022-10-11T21:54:01.266Z,23.38
2022-10-11T21:57:04.252Z,23.10
2022-10-11T22:00:08.407Z,22.60
2022-10-11T22:03:16.046Z,22.65
2022-10-11T22:06:19.638Z,24.87
2022-10-11T22:09:22.824Z,23.40
2022-10-11T22:12:26.131Z,23.52
2022-10-11T22:15:29.266Z,23.15
2022-10-11T22:18:33.828Z,23.30
2022-10-11T22:21:40.134Z,23.52
2022-10-11T22:24:45.927Z,24.17
2022-10-11T22:27:49.134Z,23.73
2022-10-11T22:30:52.380Z,24.87
2022-10-11T22:33:56.843Z,23.92
2022-10-11T22:37:01.317Z,23.98
2022-10-11T22:40:04.831Z,24.30
2022-10-11T22:43:09.437Z,24.37
2022-10-11T22:46:15.271Z,23.27
2022-10-11T22:49:21.166Z,23.95
2022-10-11T22:52:24.471Z,23.75
2022-10-11T22:55:29.058Z,24.17
2022-10-11T22:58:32.580Z,22.50
2022-10-11T23:01:36.585Z,23.10
2022-10-11T23:04:43.184Z,22.58
2022-10-11T23:07:48.341Z,23.12
2022-10-11T23:10:52.888Z,23.55
2022-10-11T23:13:56.183Z,22.08
2022-10-11T23:16:59.208Z,21.95
2022-10-11T23:20:02.750Z,22.08
2022-10-11T23:23:06.987Z,24.67
2022-10-11T23:26:16.479Z,23.65
2022-10-11T23:29:19.518Z,22.33
2022-10-11T23:32:23.417Z,23.55
2022-10-11T23:35:26.720Z,23.40
2022-10-11T23:38:30.003Z,23.13
2022-10-11T23:41:33.088Z,23.60
2022-10-11T23:44:36.538Z,22.95
2022-10-11T23:47:40.424Z,24.58
2022-10-11T23:50:44.130Z,25.35
2022-10-11T23:53:47.410Z,25.20
2022-10-11T23:56:50.719Z,26.33
2022-10-11T23:59:53.734Z,26.15
